Time;durP1;ratioP1;P1;durP2;ratioP2;P2;SDS_P1;SDS_P2;PMS_P1;PMS_P2;Temp;Humidity;BMP_temperature;BMP_pressure;BME280_temperature;BME280_humidity;BME280_pressure;Samples;Min_cycle;Max_cycle;Signal;HPM_P1;HPM_P2
2023/02/01 00:02:01;;;;;;;;;;;28.10;99.00;;;;;;5057919;28;20182;-67
2023/02/01 00:04:27;;;;;;;;;;;28.10;99.40;;;;;;5065047;28;19908;-61
2023/02/01 00:06:54;;;;;;;;;;;28.30;99.90;;;;;;5065255;28;19915;-63
2023/02/01 00:09:20;;;;;;;;;;;28.70;99.90;;;;;;5065763;28;19908;-64
2023/02/01 00:11:47;;;;;;;;;;;29.10;98.10;;;;;;5063564;28;20013;-61
2023/02/01 00:14:13;;;;;;;;;;;29.30;98.50;;;;;;5064483;28;19913;-61
2023/02/01 00:16:43;;;;;;;;;;;29.50;97.70;;;;;;5064666;28;19912;-68
2023/02/01 00:19:13;;;;;;;;;;;29.80;97.00;;;;;;5065123;28;19912;-64
2023/02/01 00:21:40;;;;;;;;;;;29.60;97.40;;;;;;5065328;28;20304;-63
2023/02/01 00:24:06;;;;;;;;;;;29.50;97.70;;;;;;5065309;28;19958;-61
2023/02/01 00:26:40;;;;;;;;;;;29.70;97.20;;;;;;5058559;28;19915;-68
2023/02/01 00:29:10;;;;;;;;;;;29.80;97.30;;;;;;5063914;28;20217;-61
2023/02/01 00:31:37;;;;;;;;;;;30.00;97.10;;;;;;5064918;28;20085;-63
2023/02/01 00:34:03;;;;;;;;;;;29.90;97.30;;;;;;5064635;28;19927;-69
2023/02/01 00:36:31;;;;;;;;;;;29.90;97.20;;;;;;5064674;28;19951;-62
2023/02/01 00:38:57;;;;;;;;;;;30.20;97.80;;;;;;5064906;28;19948;-61
2023/02/01 00:41:23;;;;;;;;;;;30.40;96.70;;;;;;5064025;28;19912;-68
2023/02/01 00:43:50;;;;;;;;;;;30.50;96.60;;;;;;5065095;28;19959;-67
2023/02/01 00:46:18;;;;;;;;;;;30.60;96.00;;;;;;5065461;28;20319;-62
2023/02/01 00:48:44;;;;;;;;;;;30.50;96.60;;;;;;5065168;28;19904;-62
2023/02/01 00:51:13;;;;;;;;;;;30.80;96.00;;;;;;5064978;28;19960;-61
2023/02/01 00:53:39;;;;;;;;;;;31.10;96.30;;;;;;5063883;28;19912;-60
2023/02/01 00:56:06;;;;;;;;;;;30.90;95.90;;;;;;5064477;28;20050;-63
2023/02/01 00:58:33;;;;;;;;;;;30.80;95.90;;;;;;5064879;28;19912;-64
2023/02/01 01:01:08;;;;;;;;;;;30.90;96.60;;;;;;5064928;28;20297;-63
2023/02/01 01:03:37;;;;;;;;;;;31.20;95.50;;;;;;5059391;28;19915;-61
2023/02/01 01:06:05;;;;;;;;;;;31.60;95.00;;;;;;5063692;28;19931;-63
2023/02/01 01:08:31;;;;;;;;;;;31.80;95.80;;;;;;5063269;28;20267;-60
2023/02/01 01:10:58;;;;;;;;;;;32.10;95.00;;;;;;5061273;28;19920;-63
2023/02/01 01:13:24;;;;;;;;;;;32.30;95.30;;;;;;5063983;28;20518;-62
2023/02/01 01:15:50;;;;;;;;;;;32.30;94.00;;;;;;5068668;28;19908;-69
2023/02/01 01:18:17;;;;;;;;;;;32.10;94.80;;;;;;5068591;28;20487;-68
2023/02/01 01:20:46;;;;;;;;;;;32.20;94.30;;;;;;5068532;28;19927;-63
2023/02/01 01:23:12;;;;;;;;;;;32.10;94.90;;;;;;5068618;28;20413;-63
2023/02/01 01:25:39;;;;;;;;;;;32.20;93.80;;;;;;5066966;28;19908;-63
2023/02/01 01:28:06;;;;;;;;;;;32.30;94.50;;;;;;5068559;28;19908;-61
2023/02/01 01:30:36;;;;;;;;;;;32.60;95.10;;;;;;5051186;28;19912;-61
2023/02/01 01:33:02;;;;;;;;;;;32.90;94.60;;;;;;5067045;28;20427;-60
2023/02/01 01:35:30;;;;;;;;;;;33.10;93.60;;;;;;5065768;28;19935;-70
2023/02/01 01:37:57;;;;;;;;;;;32.90;93.80;;;;;;5066915;28;19924;-63
2023/02/01 01:40:23;;;;;;;;;;;32.60;93.30;;;;;;5066511;28;19908;-60
2023/02/01 01:42:53;;;;;;;;;;;32.60;93.70;;;;;;5066666;28;19908;-70
2023/02/01 01:45:22;;;;;;;;;;;32.70;93.30;;;;;;5066141;28;19955;-60
2023/02/01 01:47:52;;;;;;;;;;;32.60;93.30;;;;;;5067212;28;19919;-68
2023/02/01 01:50:21;;;;;;;;;;;32.60;93.50;;;;;;5066744;28;19912;-61
2023/02/01 01:52:49;;;;;;;;;;;33.00;94.40;;;;;;5064279;28;20157;-64
2023/02/01 01:55:16;;;;;;;;;;;33.20;93.10;;;;;;5067093;28;19909;-67
2023/02/01 01:57:44;;;;;;;;;;;33.30;93.70;;;;;;5065903;28;20407;-61
2023/02/01 02:00:16;;;;;;;;;;;33.60;92.10;;;;;;5066790;28;19976;-64
2023/02/01 02:02:43;;;;;;;;;;;33.30;92.50;;;;;;5066612;28;19993;-67
2023/02/01 02:05:10;;;;;;;;;;;33.30;93.10;;;;;;5064199;28;19919;-65
2023/02/01 02:07:38;;;;;;;;;;;33.50;92.20;;;;;;5066280;28;20078;-66
2023/02/01 02:10:05;;;;;;;;;;;33.70;93.00;;;;;;5061870;28;19933;-61
2023/02/01 02:12:32;;;;;;;;;;;33.70;91.90;;;;;;5063514;28;19927;-62
2023/02/01 02:14:59;;;;;;;;;;;33.60;92.40;;;;;;5066455;28;19915;-61
2023/02/01 02:17:31;;;;;;;;;;;33.60;92.20;;;;;;5064637;28;20018;-61
2023/02/01 02:20:04;;;;;;;;;;;34.10;92.20;;;;;;5066660;28;19908;-63
2023/02/01 02:22:34;;;;;;;;;;;34.40;92.10;;;;;;5060514;28;19924;-61
2023/02/01 02:25:15;;;;;;;;;;;34.80;91.50;;;;;;5063180;28;19912;-61
2023/02/01 02:28:11;;;;;;;;;;;34.80;91.90;;;;;;5062019;28;19960;-64
2023/02/01 02:30:37;;;;;;;;;;;35.10;91.90;;;;;;5065682;28;19916;-63
2023/02/01 02:33:14;;;;;;;;;;;34.80;90.30;;;;;;5064364;28;19916;-67
2023/02/01 02:35:48;;;;;;;;;;;34.60;91.70;;;;;;5063684;28;20330;-68
2023/02/01 02:38:20;;;;;;;;;;;34.80;92.40;;;;;;5062756;28;19912;-62
2023/02/01 02:40:53;;;;;;;;;;;35.50;92.00;;;;;;5065236;28;20365;-62
2023/02/01 02:49:23;;;;;;;;;;;33.80;92.30;;;;;;5062633;28;19965;-63
2023/02/01 02:54:46;;;;;;;;;;;32.90;92.90;;;;;;5065661;28;19922;-60
2023/02/01 03:05:40;;;;;;;;;;;34.50;91.60;;;;;;5063534;28;20082;-61
2023/02/01 03:08:16;;;;;;;;;;;34.90;91.40;;;;;;5065521;28;19916;-59
2023/02/01 03:11:03;;;;;;;;;;;35.00;92.00;;;;;;5064908;28;20281;-60
2023/02/01 03:13:36;;;;;;;;;;;35.40;91.60;;;;;;5062920;28;20331;-67
2023/02/01 03:16:05;;;;;;;;;;;35.40;91.60;;;;;;5065375;28;20003;-63
2023/02/01 03:18:40;;;;;;;;;;;35.30;91.10;;;;;;5065203;28;19915;-63
2023/02/01 03:21:09;;;;;;;;;;;35.00;92.00;;;;;;5065588;28;20010;-61
2023/02/01 03:23:39;;;;;;;;;;;35.10;91.70;;;;;;5058451;28;19909;-65
2023/02/01 03:26:08;;;;;;;;;;;34.80;91.20;;;;;;5064999;28;19908;-65
2023/02/01 03:28:35;;;;;;;;;;;34.00;92.30;;;;;;5064603;28;20007;-59
2023/02/01 03:31:02;;;;;;;;;;;34.00;92.20;;;;;;5065229;28;19934;-60
2023/02/01 03:33:29;;;;;;;;;;;34.50;92.10;;;;;;5064861;28;19949;-60
2023/02/01 03:36:09;;;;;;;;;;;34.40;92.50;;;;;;5065049;28;19908;-64
2023/02/01 03:38:42;;;;;;;;;;;34.60;91.90;;;;;;5064983;28;19908;-67
2023/02/01 03:41:09;;;;;;;;;;;34.00;92.40;;;;;;5064348;28;20283;-59
2023/02/01 03:43:41;;;;;;;;;;;33.50;92.20;;;;;;5065862;28;19912;-62
2023/02/01 03:46:12;;;;;;;;;;;33.50;93.10;;;;;;5065839;28;19998;-62
2023/02/01 03:48:39;;;;;;;;;;;33.80;92.40;;;;;;5064087;28;19959;-62
2023/02/01 03:51:06;;;;;;;;;;;34.20;91.80;;;;;;5064750;28;20411;-59
2023/02/01 03:53:34;;;;;;;;;;;34.00;92.50;;;;;;5057022;28;19938;-59
2023/02/01 03:56:00;;;;;;;;;;;34.20;92.00;;;;;;5065476;28;20441;-59
2023/02/01 03:58:27;;;;;;;;;;;34.60;91.80;;;;;;5065181;28;19962;-61
2023/02/01 04:00:59;;;;;;;;;;;34.50;91.80;;;;;;5065706;28;19908;-59
2023/02/01 04:03:26;;;;;;;;;;;34.40;91.90;;;;;;5065095;28;19908;-65
2023/02/01 04:05:53;;;;;;;;;;;34.30;92.00;;;;;;5063946;28;20295;-65
2023/02/01 04:08:20;;;;;;;;;;;34.10;92.50;;;;;;5064398;28;20074;-64
2023/02/01 04:10:46;;;;;;;;;;;34.80;92.00;;;;;;5064714;28;20447;-64
2023/02/01 04:13:13;;;;;;;;;;;35.10;91.50;;;;;;5063129;28;19936;-65
2023/02/01 04:15:39;;;;;;;;;;;35.40;91.40;;;;;;5064073;28;19919;-64
2023/02/01 04:18:06;;;;;;;;;;;35.50;90.60;;;;;;5062629;28;20432;-66
2023/02/01 04:20:32;;;;;;;;;;;34.80;90.80;;;;;;5064051;28;19912;-64
2023/02/01 04:22:59;;;;;;;;;;;34.40;91.20;;;;;;5065045;28;19956;-67
2023/02/01 04:25:25;;;;;;;;;;;33.70;91.70;;;;;;5064870;28;20449;-66
2023/02/01 04:27:51;;;;;;;;;;;33.60;91.90;;;;;;5063638;28;20317;-59
2023/02/01 04:30:18;;;;;;;;;;;33.60;91.70;;;;;;5063609;28;19998;-62
2023/02/01 04:32:44;;;;;;;;;;;33.80;91.70;;;;;;5061047;28;20269;-63
2023/02/01 04:35:11;;;;;;;;;;;33.10;92.40;;;;;;5060133;28;20383;-63
2023/02/01 04:37:37;;;;;;;;;;;33.00;92.10;;;;;;5064365;28;20014;-65
2023/02/01 04:40:04;;;;;;;;;;;32.80;92.80;;;;;;5063662;28;19914;-64
2023/02/01 04:42:30;;;;;;;;;;;33.00;92.60;;;;;;5062158;28;20429;-63
2023/02/01 04:44:57;;;;;;;;;;;33.10;92.80;;;;;;5064016;28;19974;-65
2023/02/01 04:47:23;;;;;;;;;;;33.20;92.50;;;;;;5045623;28;19919;-70
2023/02/01 04:49:49;;;;;;;;;;;33.20;92.90;;;;;;5058218;28;19912;-64
2023/02/01 04:52:16;;;;;;;;;;;33.30;93.40;;;;;;5062611;28;19912;-64
2023/02/01 04:54:42;;;;;;;;;;;33.30;92.20;;;;;;5063344;28;19924;-60
2023/02/01 04:57:09;;;;;;;;;;;33.20;92.80;;;;;;5063972;28;19970;-63
2023/02/01 04:59:35;;;;;;;;;;;33.30;92.60;;;;;;5062501;28;19912;-66
2023/02/01 05:02:01;;;;;;;;;;;33.10;93.00;;;;;;5062549;28;19916;-63
2023/02/01 05:04:28;;;;;;;;;;;32.90;92.90;;;;;;5060018;28;19912;-71
2023/02/01 05:06:54;;;;;;;;;;;33.00;93.00;;;;;;5059759;28;19967;-63
2023/02/01 05:09:21;;;;;;;;;;;33.20;92.50;;;;;;5062813;28;19912;-62
2023/02/01 05:14:32;;;;;;;;;;;33.00;93.10;;;;;;5057331;28;19955;-66
2023/02/01 05:16:58;;;;;;;;;;;32.60;93.00;;;;;;5062184;28;20010;-64
2023/02/01 05:19:25;;;;;;;;;;;32.30;94.00;;;;;;5060252;28;19912;-61
2023/02/01 05:21:51;;;;;;;;;;;32.60;93.80;;;;;;5062092;28;20167;-60
2023/02/01 05:24:20;;;;;;;;;;;32.30;93.90;;;;;;5059579;28;19920;-63
2023/02/01 05:26:47;;;;;;;;;;;32.40;94.10;;;;;;5057458;28;20416;-66
2023/02/01 05:29:13;;;;;;;;;;;32.80;93.90;;;;;;5062674;28;20260;-62
2023/02/01 05:31:40;;;;;;;;;;;33.30;93.50;;;;;;5063357;28;20199;-64
2023/02/01 05:34:07;;;;;;;;;;;33.30;93.10;;;;;;5057550;28;19928;-61
2023/02/01 05:36:33;;;;;;;;;;;33.00;92.80;;;;;;5062214;28;20018;-65
2023/02/01 05:38:59;;;;;;;;;;;32.60;93.50;;;;;;5063444;28;20413;-69
2023/02/01 05:41:26;;;;;;;;;;;32.90;93.80;;;;;;5060334;28;19920;-62
2023/02/01 05:43:52;;;;;;;;;;;33.00;92.60;;;;;;5062529;28;19912;-62
2023/02/01 05:46:18;;;;;;;;;;;33.10;93.00;;;;;;5062543;28;19939;-60
2023/02/01 05:48:45;;;;;;;;;;;33.10;92.90;;;;;;5062181;28;19957;-62
2023/02/01 05:51:11;;;;;;;;;;;32.90;92.70;;;;;;5062421;28;19908;-65
2023/02/01 05:53:38;;;;;;;;;;;32.40;93.30;;;;;;5063408;28;19912;-65
2023/02/01 05:56:05;;;;;;;;;;;31.90;93.80;;;;;;5057254;28;20214;-61
2023/02/01 05:58:31;;;;;;;;;;;32.00;93.50;;;;;;5058143;28;19958;-59
2023/02/01 06:01:01;;;;;;;;;;;31.60;94.30;;;;;;5048705;28;19959;-62
2023/02/01 06:03:28;;;;;;;;;;;31.60;94.30;;;;;;5045536;28;20342;-64
2023/02/01 06:05:54;;;;;;;;;;;31.50;94.30;;;;;;5063368;28;19919;-59
2023/02/01 06:08:20;;;;;;;;;;;31.90;94.40;;;;;;5062775;28;19912;-59
2023/02/01 06:10:47;;;;;;;;;;;32.30;94.00;;;;;;5063619;28;20380;-60
2023/02/01 06:13:13;;;;;;;;;;;32.80;93.80;;;;;;5062960;28;19970;-63
2023/02/01 06:15:42;;;;;;;;;;;32.40;93.50;;;;;;5065604;28;19919;-59
2023/02/01 06:18:08;;;;;;;;;;;32.30;94.10;;;;;;5066169;28;19904;-60
2023/02/01 06:20:35;;;;;;;;;;;32.60;93.70;;;;;;5056845;28;20361;-62
2023/02/01 06:23:01;;;;;;;;;;;32.70;93.80;;;;;;5059015;28;19913;-60
2023/02/01 06:25:27;;;;;;;;;;;32.30;93.50;;;;;;5063481;28;19913;-61
2023/02/01 06:27:54;;;;;;;;;;;32.50;93.70;;;;;;5064599;28;20238;-61
2023/02/01 06:30:20;;;;;;;;;;;32.90;93.40;;;;;;5062614;28;20013;-63
2023/02/01 06:32:53;;;;;;;;;;;32.80;93.20;;;;;;5060364;28;19981;-62
2023/02/01 06:35:19;;;;;;;;;;;32.70;93.40;;;;;;5062047;28;19912;-64
2023/02/01 06:37:46;;;;;;;;;;;33.00;93.20;;;;;;5062600;28;19920;-62
2023/02/01 06:40:12;;;;;;;;;;;33.40;93.00;;;;;;5062733;28;19912;-62
2023/02/01 06:42:39;;;;;;;;;;;32.80;92.70;;;;;;5063297;28;19947;-62
2023/02/01 06:45:06;;;;;;;;;;;32.00;94.00;;;;;;5064192;28;20406;-60
2023/02/01 06:47:33;;;;;;;;;;;32.30;93.60;;;;;;5063678;28;19947;-63
2023/02/01 06:49:59;;;;;;;;;;;32.60;93.50;;;;;;5064196;28;19908;-63
2023/02/01 06:52:26;;;;;;;;;;;32.50;93.80;;;;;;5061920;28;19962;-60
2023/02/01 06:54:52;;;;;;;;;;;32.80;93.40;;;;;;5062757;28;19923;-60
2023/02/01 06:57:18;;;;;;;;;;;32.60;93.40;;;;;;5061375;28;19912;-61
2023/02/01 06:59:45;;;;;;;;;;;32.40;93.80;;;;;;5061370;28;19912;-64
2023/02/01 07:02:11;;;;;;;;;;;32.50;94.00;;;;;;5061943;28;19912;-61
2023/02/01 07:04:38;;;;;;;;;;;33.30;93.70;;;;;;5061657;28;19912;-61
2023/02/01 07:07:04;;;;;;;;;;;33.90;92.70;;;;;;5061767;28;19959;-62
2023/02/01 07:09:31;;;;;;;;;;;34.50;92.40;;;;;;5062623;28;19958;-59
2023/02/01 07:11:57;;;;;;;;;;;34.80;92.00;;;;;;5060312;28;19909;-62
2023/02/01 07:14:23;;;;;;;;;;;34.70;91.80;;;;;;5062605;28;19916;-61
2023/02/01 07:16:50;;;;;;;;;;;34.00;92.20;;;;;;5062150;28;20376;-63
2023/02/01 07:19:17;;;;;;;;;;;33.60;92.70;;;;;;5061031;28;19986;-60
2023/02/01 07:21:43;;;;;;;;;;;34.00;92.50;;;;;;5062259;28;19974;-65
2023/02/01 07:24:09;;;;;;;;;;;33.70;92.50;;;;;;5060566;28;20351;-66
2023/02/01 07:26:39;;;;;;;;;;;34.20;92.90;;;;;;5061100;28;19912;-62
2023/02/01 07:29:05;;;;;;;;;;;34.30;91.80;;;;;;5059840;28;19966;-63
2023/02/01 07:31:31;;;;;;;;;;;33.60;92.30;;;;;;5061624;28;19916;-63
2023/02/01 07:33:58;;;;;;;;;;;33.50;92.60;;;;;;5062584;28;19916;-65
2023/02/01 07:36:24;;;;;;;;;;;33.80;92.90;;;;;;5062475;28;20348;-64
2023/02/01 07:38:51;;;;;;;;;;;33.80;92.20;;;;;;5061996;28;20376;-62
2023/02/01 07:41:18;;;;;;;;;;;33.70;91.70;;;;;;5061519;28;19917;-65
2023/02/01 07:43:44;;;;;;;;;;;33.50;92.50;;;;;;5062390;28;19912;-66
2023/02/01 07:46:11;;;;;;;;;;;33.20;92.10;;;;;;5060717;28;20195;-67
2023/02/01 07:48:37;;;;;;;;;;;31.50;93.40;;;;;;5060403;28;20310;-65
2023/02/01 07:51:06;;;;;;;;;;;30.10;95.00;;;;;;5061987;28;19958;-59
2023/02/01 07:53:33;;;;;;;;;;;29.20;96.20;;;;;;5060048;28;19935;-59
2023/02/01 07:56:00;;;;;;;;;;;28.50;96.60;;;;;;5061434;28;19965;-63
2023/02/01 07:58:27;;;;;;;;;;;27.90;97.60;;;;;;5062441;28;20440;-60
2023/02/01 08:03:38;;;;;;;;;;;27.10;98.90;;;;;;5060466;28;19919;-62
2023/02/01 08:06:06;;;;;;;;;;;26.90;99.40;;;;;;5061625;28;19995;-64
2023/02/01 08:08:32;;;;;;;;;;;26.80;99.70;;;;;;5057421;28;20201;-62
2023/02/01 08:10:59;;;;;;;;;;;26.80;99.50;;;;;;5061859;28;19919;-64
2023/02/01 08:13:26;;;;;;;;;;;26.80;99.70;;;;;;5057568;28;20368;-63
2023/02/01 08:15:52;;;;;;;;;;;26.60;99.90;;;;;;5058575;28;20163;-62
2023/02/01 08:18:20;;;;;;;;;;;26.50;99.90;;;;;;5058713;28;20198;-60
2023/02/01 08:20:47;;;;;;;;;;;26.40;99.90;;;;;;5059137;28;19969;-66
2023/02/01 08:23:13;;;;;;;;;;;26.30;99.90;;;;;;5057611;28;19952;-63
2023/02/01 08:25:40;;;;;;;;;;;26.00;99.90;;;;;;5059027;28;19966;-65
2023/02/01 08:28:07;;;;;;;;;;;25.90;99.90;;;;;;5058733;28;19916;-65
2023/02/01 08:30:33;;;;;;;;;;;25.70;99.90;;;;;;5059234;28;19912;-64
2023/02/01 08:33:00;;;;;;;;;;;25.50;99.90;;;;;;5058039;28;19920;-65
2023/02/01 08:35:27;;;;;;;;;;;25.30;99.90;;;;;;5040125;28;20019;-66
2023/02/01 08:37:54;;;;;;;;;;;25.20;99.90;;;;;;5057935;28;20217;-59
2023/02/01 08:40:21;;;;;;;;;;;25.20;99.90;;;;;;5056742;28;20399;-60
2023/02/01 08:42:50;;;;;;;;;;;25.20;99.90;;;;;;5058541;28;19912;-60
2023/02/01 08:45:24;;;;;;;;;;;25.20;99.90;;;;;;5057857;28;19913;-64
2023/02/01 08:47:51;;;;;;;;;;;25.10;99.90;;;;;;5055954;28;20419;-63
2023/02/01 08:50:18;;;;;;;;;;;24.90;99.90;;;;;;5058402;28;20110;-60
2023/02/01 08:52:45;;;;;;;;;;;24.90;99.90;;;;;;5056730;28;20006;-65
2023/02/01 08:55:12;;;;;;;;;;;24.80;99.90;;;;;;5039421;28;19916;-66
2023/02/01 08:57:38;;;;;;;;;;;24.70;99.90;;;;;;5059426;28;19916;-61
2023/02/01 09:00:06;;;;;;;;;;;24.60;99.90;;;;;;5059231;28;19916;-60
2023/02/01 09:02:32;;;;;;;;;;;24.60;99.90;;;;;;5058054;28;20002;-60
2023/02/01 09:04:58;;;;;;;;;;;24.60;99.90;;;;;;5058794;28;20449;-60
2023/02/01 09:07:25;;;;;;;;;;;24.40;99.90;;;;;;5057905;28;19912;-60
2023/02/01 09:09:52;;;;;;;;;;;24.40;99.90;;;;;;5057839;28;19919;-65
2023/02/01 09:12:18;;;;;;;;;;;24.30;99.90;;;;;;5056318;28;19965;-60
2023/02/01 09:14:45;;;;;;;;;;;24.20;99.90;;;;;;5057541;28;19916;-60
2023/02/01 09:17:13;;;;;;;;;;;24.20;99.90;;;;;;5058004;28;19923;-63
2023/02/01 09:19:39;;;;;;;;;;;24.10;99.90;;;;;;5059283;28;19970;-64
2023/02/01 09:22:06;;;;;;;;;;;24.10;99.90;;;;;;5040068;28;19993;-63
2023/02/01 09:24:32;;;;;;;;;;;24.00;99.90;;;;;;5058592;28;19939;-65
2023/02/01 09:26:58;;;;;;;;;;;24.00;99.90;;;;;;5057693;28;19913;-63
2023/02/01 09:29:25;;;;;;;;;;;24.00;99.90;;;;;;5059552;28;19918;-70
2023/02/01 09:31:51;;;;;;;;;;;23.90;99.90;;;;;;5056571;28;19916;-61
2023/02/01 09:34:18;;;;;;;;;;;23.90;99.90;;;;;;5057000;28;19964;-67
2023/02/01 09:36:44;;;;;;;;;;;23.90;99.90;;;;;;5062500;28;20007;-63
2023/02/01 09:39:10;;;;;;;;;;;23.80;99.90;;;;;;5062904;28;19912;-65
2023/02/01 09:41:57;;;;;;;;;;;23.80;99.90;;;;;;5061682;28;19918;-65
2023/02/01 09:44:23;;;;;;;;;;;23.80;99.90;;;;;;5062343;28;20475;-66
2023/02/01 09:46:55;;;;;;;;;;;23.70;99.90;;;;;;5063519;28;20362;-67
2023/02/01 09:49:46;;;;;;;;;;;23.70;99.90;;;;;;5041020;28;19912;-66
2023/02/01 09:52:13;;;;;;;;;;;23.70;99.90;;;;;;5055299;28;20011;-67
2023/02/01 09:54:47;;;;;;;;;;;23.60;99.90;;;;;;5060621;28;19920;-67
2023/02/01 09:57:19;;;;;;;;;;;23.50;99.90;;;;;;5062440;28;20023;-63
2023/02/01 10:00:05;;;;;;;;;;;23.50;99.90;;;;;;5062675;28;19955;-60
2023/02/01 10:02:33;;;;;;;;;;;23.30;99.90;;;;;;5056327;28;19913;-62
2023/02/01 10:05:01;;;;;;;;;;;23.30;99.90;;;;;;5056640;28;19916;-64
2023/02/01 10:07:27;;;;;;;;;;;23.20;99.90;;;;;;5061418;28;20296;-60
2023/02/01 10:09:59;;;;;;;;;;;23.20;99.90;;;;;;4707794;28;10000516;-64
2023/02/01 10:12:44;;;;;;;;;;;23.20;99.90;;;;;;5057842;28;19916;-64
2023/02/01 10:15:10;;;;;;;;;;;23.10;99.90;;;;;;5058456;28;20007;-71
2023/02/01 10:17:59;;;;;;;;;;;23.00;99.90;;;;;;5061142;28;19912;-66
2023/02/01 10:20:29;;;;;;;;;;;23.10;99.90;;;;;;4712784;22;10001438;-67
2023/02/01 10:22:58;;;;;;;;;;;23.10;99.90;;;;;;5019878;28;19913;-64
2023/02/01 10:25:34;;;;;;;;;;;23.10;99.90;;;;;;5020374;28;20414;-64
2023/02/01 10:28:02;;;;;;;;;;;23.00;99.90;;;;;;5019488;28;20003;-64
2023/02/01 10:30:30;;;;;;;;;;;23.10;99.90;;;;;;5019103;28;20405;-70
2023/02/01 10:33:00;;;;;;;;;;;23.10;99.90;;;;;;5020109;28;19920;-65
2023/02/01 10:35:33;;;;;;;;;;;23.00;99.90;;;;;;5016583;28;19913;-65
2023/02/01 10:38:12;;;;;;;;;;;23.00;99.90;;;;;;5019476;28;19978;-69
2023/02/01 10:40:38;;;;;;;;;;;23.10;99.90;;;;;;5020164;28;19968;-60
2023/02/01 10:43:05;;;;;;;;;;;23.10;99.90;;;;;;5021061;28;19921;-69
2023/02/01 10:45:32;;;;;;;;;;;23.10;99.90;;;;;;5015282;28;20701;-64
2023/02/01 10:48:00;;;;;;;;;;;23.30;99.90;;;;;;5022212;28;19912;-61
2023/02/01 10:50:41;;;;;;;;;;;23.30;99.90;;;;;;5023738;28;19974;-65
2023/02/01 10:53:17;;;;;;;;;;;23.30;99.90;;;;;;5022854;28;19952;-64
2023/02/01 10:55:43;;;;;;;;;;;23.40;99.90;;;;;;5021911;28;19924;-69
2023/02/01 10:58:18;;;;;;;;;;;23.40;99.90;;;;;;5021574;28;20348;-70
2023/02/01 11:00:46;;;;;;;;;;;23.50;99.90;;;;;;5021981;28;19971;-63
2023/02/01 11:03:27;;;;;;;;;;;23.50;99.90;;;;;;5021679;28;19913;-66
2023/02/01 11:05:55;;;;;;;;;;;23.50;99.90;;;;;;5022365;28;19927;-63
2023/02/01 11:08:25;;;;;;;;;;;23.50;99.90;;;;;;5023879;28;19944;-62
2023/02/01 11:10:58;;;;;;;;;;;23.50;99.90;;;;;;5024121;28;19912;-69
2023/02/01 11:13:28;;;;;;;;;;;23.50;99.90;;;;;;5022341;28;19932;-66
2023/02/01 11:15:58;;;;;;;;;;;23.60;99.90;;;;;;5020367;28;19939;-65
2023/02/01 11:18:31;;;;;;;;;;;23.60;99.90;;;;;;5025466;28;20288;-61
2023/02/01 11:20:59;;;;;;;;;;;23.60;99.90;;;;;;5025088;28;19967;-64
2023/02/01 11:23:27;;;;;;;;;;;23.50;99.90;;;;;;5025836;28;19967;-70
2023/02/01 11:25:55;;;;;;;;;;;23.50;99.90;;;;;;5025456;28;19917;-61
2023/02/01 11:28:23;;;;;;;;;;;23.50;99.90;;;;;;5025292;28;20020;-62
2023/02/01 11:30:51;;;;;;;;;;;23.50;99.90;;;;;;5025895;28;19913;-69
2023/02/01 11:33:19;;;;;;;;;;;23.60;99.90;;;;;;5025323;28;19917;-65
2023/02/01 11:35:47;;;;;;;;;;;23.50;99.90;;;;;;5026280;28;20345;-61
2023/02/01 11:38:30;;;;;;;;;;;23.50;99.90;;;;;;5026567;28;20001;-66
2023/02/01 11:41:11;;;;;;;;;;;23.40;99.90;;;;;;5025507;28;20428;-63
2023/02/01 11:43:38;;;;;;;;;;;23.40;99.90;;;;;;5025862;28;19913;-62
2023/02/01 11:46:16;;;;;;;;;;;23.40;99.90;;;;;;5025639;28;20360;-63
2023/02/01 11:48:42;;;;;;;;;;;23.30;99.90;;;;;;5025956;28;19949;-64
2023/02/01 11:51:11;;;;;;;;;;;23.40;99.90;;;;;;5025633;28;20511;-64
2023/02/01 11:54:06;;;;;;;;;;;23.50;99.90;;;;;;5025456;28;20424;-69
2023/02/01 11:56:47;;;;;;;;;;;23.60;99.90;;;;;;4977156;28;19996;-65
2023/02/01 11:59:26;;;;;;;;;;;23.60;99.90;;;;;;4976972;28;19941;-71
2023/02/01 12:01:52;;;;;;;;;;;23.50;99.90;;;;;;4983477;28;19972;-70
2023/02/01 12:04:40;;;;;;;;;;;23.50;99.90;;;;;;4982956;28;19910;-64
2023/02/01 12:07:22;;;;;;;;;;;23.50;99.90;;;;;;4983653;28;20437;-63
2023/02/01 12:09:51;;;;;;;;;;;23.50;99.90;;;;;;4972261;28;20023;-70
2023/02/01 12:12:17;;;;;;;;;;;23.50;99.90;;;;;;4982270;28;20608;-69
2023/02/01 12:15:03;;;;;;;;;;;23.50;99.90;;;;;;4975576;28;20033;-61
2023/02/01 12:17:48;;;;;;;;;;;23.50;99.90;;;;;;4971209;28;19942;-67
2023/02/01 12:20:14;;;;;;;;;;;23.30;99.90;;;;;;4977976;28;20012;-62
2023/02/01 12:22:46;;;;;;;;;;;23.30;99.90;;;;;;4986627;28;20016;-62
2023/02/01 12:25:19;;;;;;;;;;;23.50;99.90;;;;;;4980847;28;19914;-65
2023/02/01 12:27:50;;;;;;;;;;;23.50;99.90;;;;;;4981860;28;19921;-65
2023/02/01 12:30:26;;;;;;;;;;;23.50;99.90;;;;;;4980582;28;19913;-65
2023/02/01 12:33:01;;;;;;;;;;;23.50;99.90;;;;;;4999520;28;20039;-70
2023/02/01 12:35:42;;;;;;;;;;;23.50;99.90;;;;;;5024531;28;19917;-69
2023/02/01 12:38:08;;;;;;;;;;;23.50;99.90;;;;;;5023404;28;19913;-70
2023/02/01 12:40:53;;;;;;;;;;;23.40;99.90;;;;;;5021269;28;19913;-62
2023/02/01 12:43:25;;;;;;;;;;;23.40;99.90;;;;;;5023517;28;19913;-67
2023/02/01 12:45:54;;;;;;;;;;;23.30;99.90;;;;;;5024638;28;19921;-67
2023/02/01 12:48:27;;;;;;;;;;;23.30;99.90;;;;;;5025168;28;19912;-62
2023/02/01 12:51:01;;;;;;;;;;;23.40;99.90;;;;;;5023500;28;19913;-63
2023/02/01 12:53:31;;;;;;;;;;;23.40;99.90;;;;;;5024023;28;19921;-71
2023/02/01 12:56:00;;;;;;;;;;;23.30;99.90;;;;;;5023843;28;19920;-64
2023/02/01 12:58:38;;;;;;;;;;;23.40;99.90;;;;;;5024512;28;19913;-64
2023/02/01 13:01:08;;;;;;;;;;;23.30;99.90;;;;;;5024425;28;20245;-63
2023/02/01 13:03:34;;;;;;;;;;;23.50;99.90;;;;;;5024051;28;20011;-69
2023/02/01 13:06:10;;;;;;;;;;;23.40;99.90;;;;;;5020902;28;19913;-70
2023/02/01 13:09:05;;;;;;;;;;;23.30;99.90;;;;;;5025710;28;20297;-63
2023/02/01 13:11:34;;;;;;;;;;;23.30;99.90;;;;;;4965190;28;19925;-70
2023/02/01 13:14:16;;;;;;;;;;;23.30;99.90;;;;;;4968151;28;19945;-68
2023/02/01 13:16:48;;;;;;;;;;;23.30;99.90;;;;;;4969917;28;20328;-66
2023/02/01 13:19:37;;;;;;;;;;;23.40;99.90;;;;;;4967739;28;20009;-63
2023/02/01 13:22:07;;;;;;;;;;;23.40;99.90;;;;;;4967293;28;19918;-62
2023/02/01 13:24:38;;;;;;;;;;;23.30;99.90;;;;;;4968157;28;20326;-61
2023/02/01 13:27:05;;;;;;;;;;;23.40;99.90;;;;;;4968344;28;19965;-63
2023/02/01 13:29:34;;;;;;;;;;;23.30;99.90;;;;;;4969504;28;19951;-69
2023/02/01 13:32:07;;;;;;;;;;;23.30;99.90;;;;;;4970155;28;19913;-68
2023/02/01 13:34:43;;;;;;;;;;;23.20;99.90;;;;;;4969164;28;20000;-62
2023/02/01 13:37:12;;;;;;;;;;;23.30;99.90;;;;;;4969388;28;19921;-70
2023/02/01 13:39:56;;;;;;;;;;;23.20;99.90;;;;;;4970469;28;19910;-63
2023/02/01 13:42:34;;;;;;;;;;;23.20;99.90;;;;;;4970443;28;19913;-70
2023/02/01 13:45:14;;;;;;;;;;;23.30;99.90;;;;;;4968239;28;19910;-66
2023/02/01 13:47:42;;;;;;;;;;;23.20;99.90;;;;;;4993179;28;19913;-61
2023/02/01 13:50:18;;;;;;;;;;;23.10;99.90;;;;;;5025346;28;19916;-65
2023/02/01 13:52:45;;;;;;;;;;;23.00;99.90;;;;;;5026564;28;19913;-67
2023/02/01 13:55:16;;;;;;;;;;;22.90;99.90;;;;;;5033022;28;19905;-63
2023/02/01 13:57:44;;;;;;;;;;;22.90;99.90;;;;;;5030115;28;19909;-65
2023/02/01 14:00:26;;;;;;;;;;;22.90;99.90;;;;;;5029836;28;20331;-65
2023/02/01 14:02:55;;;;;;;;;;;22.80;99.90;;;;;;5029250;28;19915;-69
2023/02/01 14:05:21;;;;;;;;;;;22.90;99.90;;;;;;5030307;28;20020;-65
2023/02/01 14:08:06;;;;;;;;;;;22.90;99.90;;;;;;5030631;28;19908;-65
2023/02/01 14:10:45;;;;;;;;;;;22.80;99.90;;;;;;5029476;28;20281;-64
2023/02/01 14:13:23;;;;;;;;;;;22.60;99.90;;;;;;5029075;28;20281;-67
2023/02/01 14:16:06;;;;;;;;;;;22.50;99.90;;;;;;5026997;28;20377;-69
2023/02/01 14:18:46;;;;;;;;;;;22.40;99.90;;;;;;5027176;28;20354;-69
2023/02/01 14:21:15;;;;;;;;;;;22.40;99.90;;;;;;5027880;28;19921;-65
2023/02/01 14:23:55;;;;;;;;;;;22.30;99.90;;;;;;5026157;28;19910;-66
2023/02/01 14:26:24;;;;;;;;;;;22.30;99.90;;;;;;5028224;28;19913;-69
2023/02/01 14:28:53;;;;;;;;;;;22.30;99.90;;;;;;5027002;28;19917;-68
2023/02/01 14:31:37;;;;;;;;;;;22.30;99.90;;;;;;5028704;28;19913;-64
2023/02/01 14:34:11;;;;;;;;;;;22.20;99.90;;;;;;5021719;28;19921;-61
2023/02/01 14:36:49;;;;;;;;;;;22.10;99.90;;;;;;5029598;28;19983;-63
2023/02/01 14:39:32;;;;;;;;;;;22.10;99.90;;;;;;5029675;28;19952;-69
2023/02/01 14:42:03;;;;;;;;;;;22.10;99.90;;;;;;5024686;28;20528;-70
2023/02/01 14:44:31;;;;;;;;;;;22.10;99.90;;;;;;5028287;28;20356;-64
2023/02/01 14:47:12;;;;;;;;;;;22.10;99.90;;;;;;5029310;28;19913;-65
2023/02/01 14:50:02;;;;;;;;;;;22.20;99.90;;;;;;5027128;28;20365;-62
2023/02/01 14:52:42;;;;;;;;;;;22.10;99.90;;;;;;5018692;28;19920;-64
2023/02/01 14:55:16;;;;;;;;;;;21.90;99.90;;;;;;5028249;28;19913;-66